Terminal Aerodrome Forecast
Issued by NWS

Home | Current Version | Previous Version | Graphics & Text | Print | Product List | Glossary On
Versions: 1 2 3 4 5 6 7 8 9 10 11 12 13 14 15 16 17
387
FTUS43 KICT 242340
TAFHUT
TAF
KHUT 242340Z 2500/2524 18013KT P6SM BKN250
     FM250400 15011KT P6SM FEW090 BKN250 WS015/18040KT
     FM251000 15009KT P6SM BKN250
     FM251600 20008KT P6SM BKN120
     FM252100 31012KT P6SM SCT035 BKN120=

USA.gov is the U.S. government's official web portal to all federal, state and local government web resources and services.